Pownal, Maine
Current Conditions -  °F | °C
As of 5:55 PM on Thursday 23 Oct 2014 (Local Time) from KLEW Reporting Station
Overcast Overcast  
Wind Chill: 42°   Ceiling: 1400
Heat Index: 48°   Visibility: 10mi
Dew Point: 45°   Wind: 16mph
Humidity: 87%   Direction: 20°NNE
Pressure: 29.77"   Gusts: 25mph
Location:  43.89°N, 70.22°W
Report Text: KLEW 232155Z AUTO 02014G22KT 10SM BKN014 OVC020 09/07 A2977 RMK AO1
Loading
Personal Weather Stations






























Interactive Weather Map New forecast layout! Learn more

10-Day Weather Forecast

Advertisements
Track Severe Weather on mobile